sensor_id;sensor_type;location;lat;lon;timestamp;P1;durP1;ratioP1;P2;durP2;ratioP2
6763;SDS011;47432;48.760;9.178;2023-05-09T00:02:11;34.67;;;17.37;;
6763;SDS011;47432;48.760;9.178;2023-05-09T00:04:37;32.40;;;16.27;;
6763;SDS011;47432;48.760;9.178;2023-05-09T00:07:03;34.83;;;16.60;;
6763;SDS011;47432;48.760;9.178;2023-05-09T00:09:29;36.03;;;19.40;;
6763;SDS011;47432;48.760;9.178;2023-05-09T00:11:58;35.67;;;17.80;;
6763;SDS011;47432;48.760;9.178;2023-05-09T00:14:24;35.30;;;18.53;;
6763;SDS011;47432;48.760;9.178;2023-05-09T00:16:51;36.33;;;18.27;;
6763;SDS011;47432;48.760;9.178;2023-05-09T00:19:17;38.67;;;20.13;;
6763;SDS011;47432;48.760;9.178;2023-05-09T00:21:44;34.60;;;17.47;;
6763;SDS011;47432;48.760;9.178;2023-05-09T00:24:13;38.47;;;19.17;;
6763;SDS011;47432;48.760;9.178;2023-05-09T00:26:39;36.63;;;18.40;;
6763;SDS011;47432;48.760;9.178;2023-05-09T00:29:05;33.93;;;18.30;;
6763;SDS011;47432;48.760;9.178;2023-05-09T00:31:31;33.67;;;18.20;;
6763;SDS011;47432;48.760;9.178;2023-05-09T00:33:57;37.20;;;18.73;;
6763;SDS011;47432;48.760;9.178;2023-05-09T00:36:23;34.67;;;18.70;;
6763;SDS011;47432;48.760;9.178;2023-05-09T00:38:49;34.70;;;18.37;;
6763;SDS011;47432;48.760;9.178;2023-05-09T00:41:15;37.30;;;20.10;;
6763;SDS011;47432;48.760;9.178;2023-05-09T00:43:42;45.63;;;23.57;;
6763;SDS011;47432;48.760;9.178;2023-05-09T00:46:12;39.43;;;21.70;;
6763;SDS011;47432;48.760;9.178;2023-05-09T00:48:39;40.87;;;22.60;;
6763;SDS011;47432;48.760;9.178;2023-05-09T00:51:05;40.83;;;23.37;;
6763;SDS011;47432;48.760;9.178;2023-05-09T00:53:31;45.80;;;25.80;;
6763;SDS011;47432;48.760;9.178;2023-05-09T00:55:59;42.97;;;24.00;;
6763;SDS011;47432;48.760;9.178;2023-05-09T00:58:25;44.80;;;23.67;;
6763;SDS011;47432;48.760;9.178;2023-05-09T01:00:51;40.00;;;22.60;;
6763;SDS011;47432;48.760;9.178;2023-05-09T01:03:17;38.43;;;20.97;;
6763;SDS011;47432;48.760;9.178;2023-05-09T01:08:31;37.97;;;22.67;;
6763;SDS011;47432;48.760;9.178;2023-05-09T01:20:28;39.63;;;21.80;;
6763;SDS011;47432;48.760;9.178;2023-05-09T01:30:58;42.60;;;22.60;;
6763;SDS011;47432;48.760;9.178;2023-05-09T01:33:25;40.67;;;21.47;;
6763;SDS011;47432;48.760;9.178;2023-05-09T01:35:52;45.20;;;22.93;;
6763;SDS011;47432;48.760;9.178;2023-05-09T01:38:24;41.50;;;23.17;;
6763;SDS011;47432;48.760;9.178;2023-05-09T01:40:51;40.20;;;21.47;;
6763;SDS011;47432;48.760;9.178;2023-05-09T01:43:19;43.60;;;24.17;;
6763;SDS011;47432;48.760;9.178;2023-05-09T01:45:47;41.97;;;22.90;;
6763;SDS011;47432;48.760;9.178;2023-05-09T01:48:13;39.43;;;22.20;;
6763;SDS011;47432;48.760;9.178;2023-05-09T01:50:40;39.53;;;22.80;;
6763;SDS011;47432;48.760;9.178;2023-05-09T01:53:09;39.77;;;21.47;;
6763;SDS011;47432;48.760;9.178;2023-05-09T01:55:36;39.40;;;22.93;;
6763;SDS011;47432;48.760;9.178;2023-05-09T01:58:03;44.23;;;21.97;;
6763;SDS011;47432;48.760;9.178;2023-05-09T02:00:33;38.13;;;20.97;;
6763;SDS011;47432;48.760;9.178;2023-05-09T02:03:01;38.93;;;20.53;;
6763;SDS011;47432;48.760;9.178;2023-05-09T02:05:28;37.20;;;20.77;;
6763;SDS011;47432;48.760;9.178;2023-05-09T02:07:55;41.67;;;21.00;;
6763;SDS011;47432;48.760;9.178;2023-05-09T02:10:27;40.37;;;21.00;;
6763;SDS011;47432;48.760;9.178;2023-05-09T02:12:54;55.77;;;24.23;;
6763;SDS011;47432;48.760;9.178;2023-05-09T02:15:21;47.00;;;23.57;;
6763;SDS011;47432;48.760;9.178;2023-05-09T02:17:47;41.70;;;23.27;;
6763;SDS011;47432;48.760;9.178;2023-05-09T02:20:13;42.30;;;24.23;;
6763;SDS011;47432;48.760;9.178;2023-05-09T02:22:39;39.30;;;22.67;;
6763;SDS011;47432;48.760;9.178;2023-05-09T02:25:06;39.30;;;21.53;;
6763;SDS011;47432;48.760;9.178;2023-05-09T02:27:34;44.93;;;21.17;;
6763;SDS011;47432;48.760;9.178;2023-05-09T02:30:03;44.57;;;23.53;;
6763;SDS011;47432;48.760;9.178;2023-05-09T02:32:33;41.57;;;21.80;;
6763;SDS011;47432;48.760;9.178;2023-05-09T02:35:01;39.07;;;22.20;;
6763;SDS011;47432;48.760;9.178;2023-05-09T02:37:28;39.07;;;21.33;;
6763;SDS011;47432;48.760;9.178;2023-05-09T02:39:54;38.97;;;21.70;;
6763;SDS011;47432;48.760;9.178;2023-05-09T02:42:21;42.77;;;23.20;;
6763;SDS011;47432;48.760;9.178;2023-05-09T02:44:54;48.07;;;24.30;;
6763;SDS011;47432;48.760;9.178;2023-05-09T02:47:20;50.93;;;28.40;;
6763;SDS011;47432;48.760;9.178;2023-05-09T02:49:46;46.90;;;24.97;;
6763;SDS011;47432;48.760;9.178;2023-05-09T02:52:13;39.90;;;23.00;;
6763;SDS011;47432;48.760;9.178;2023-05-09T02:54:41;43.03;;;23.67;;
6763;SDS011;47432;48.760;9.178;2023-05-09T02:57:07;41.77;;;22.87;;
6763;SDS011;47432;48.760;9.178;2023-05-09T02:59:33;38.77;;;20.87;;
6763;SDS011;47432;48.760;9.178;2023-05-09T03:01:59;44.67;;;21.80;;
6763;SDS011;47432;48.760;9.178;2023-05-09T03:04:25;43.20;;;21.83;;
6763;SDS011;47432;48.760;9.178;2023-05-09T03:06:51;40.37;;;21.53;;
6763;SDS011;47432;48.760;9.178;2023-05-09T03:09:18;46.80;;;23.20;;
6763;SDS011;47432;48.760;9.178;2023-05-09T03:11:44;42.67;;;22.67;;
6763;SDS011;47432;48.760;9.178;2023-05-09T03:14:10;42.27;;;23.27;;
6763;SDS011;47432;48.760;9.178;2023-05-09T03:16:38;43.80;;;22.13;;
6763;SDS011;47432;48.760;9.178;2023-05-09T03:19:04;41.97;;;22.70;;
6763;SDS011;47432;48.760;9.178;2023-05-09T03:21:31;41.23;;;21.30;;
6763;SDS011;47432;48.760;9.178;2023-05-09T03:23:57;36.47;;;20.47;;
6763;SDS011;47432;48.760;9.178;2023-05-09T03:26:23;45.30;;;21.37;;
6763;SDS011;47432;48.760;9.178;2023-05-09T03:28:50;45.23;;;23.30;;
6763;SDS011;47432;48.760;9.178;2023-05-09T03:31:16;38.43;;;21.47;;
6763;SDS011;47432;48.760;9.178;2023-05-09T03:33:45;45.77;;;23.40;;
6763;SDS011;47432;48.760;9.178;2023-05-09T03:36:11;42.40;;;23.70;;
6763;SDS011;47432;48.760;9.178;2023-05-09T03:38:37;41.37;;;23.67;;
6763;SDS011;47432;48.760;9.178;2023-05-09T03:41:03;46.83;;;25.77;;
6763;SDS011;47432;48.760;9.178;2023-05-09T03:43:29;42.57;;;21.67;;
6763;SDS011;47432;48.760;9.178;2023-05-09T03:45:55;41.70;;;22.53;;
6763;SDS011;47432;48.760;9.178;2023-05-09T03:48:21;40.70;;;23.00;;
6763;SDS011;47432;48.760;9.178;2023-05-09T03:50:47;43.20;;;23.03;;
6763;SDS011;47432;48.760;9.178;2023-05-09T03:53:13;42.70;;;23.37;;
6763;SDS011;47432;48.760;9.178;2023-05-09T03:55:40;44.90;;;23.87;;
6763;SDS011;47432;48.760;9.178;2023-05-09T03:58:06;46.67;;;24.67;;
6763;SDS011;47432;48.760;9.178;2023-05-09T04:00:32;44.80;;;24.00;;
6763;SDS011;47432;48.760;9.178;2023-05-09T04:02:58;44.27;;;24.67;;
6763;SDS011;47432;48.760;9.178;2023-05-09T04:05:24;47.97;;;25.90;;
6763;SDS011;47432;48.760;9.178;2023-05-09T04:07:51;41.30;;;22.10;;
6763;SDS011;47432;48.760;9.178;2023-05-09T04:10:17;44.70;;;24.67;;
6763;SDS011;47432;48.760;9.178;2023-05-09T04:12:43;43.10;;;24.70;;
6763;SDS011;47432;48.760;9.178;2023-05-09T04:15:09;48.90;;;27.03;;
6763;SDS011;47432;48.760;9.178;2023-05-09T04:17:35;45.43;;;24.27;;
6763;SDS011;47432;48.760;9.178;2023-05-09T04:20:04;43.30;;;24.83;;
6763;SDS011;47432;48.760;9.178;2023-05-09T04:22:32;44.17;;;23.30;;
6763;SDS011;47432;48.760;9.178;2023-05-09T04:24:58;42.77;;;22.80;;
6763;SDS011;47432;48.760;9.178;2023-05-09T04:27:24;40.87;;;22.13;;
6763;SDS011;47432;48.760;9.178;2023-05-09T04:29:52;39.77;;;21.03;;
6763;SDS011;47432;48.760;9.178;2023-05-09T04:32:18;39.40;;;21.00;;
6763;SDS011;47432;48.760;9.178;2023-05-09T04:34:44;41.80;;;22.53;;
6763;SDS011;47432;48.760;9.178;2023-05-09T04:37:11;39.77;;;21.17;;
6763;SDS011;47432;48.760;9.178;2023-05-09T04:39:39;39.97;;;21.77;;
6763;SDS011;47432;48.760;9.178;2023-05-09T04:42:06;41.97;;;21.77;;
6763;SDS011;47432;48.760;9.178;2023-05-09T04:44:32;44.00;;;23.80;;
6763;SDS011;47432;48.760;9.178;2023-05-09T04:46:59;51.77;;;26.47;;
6763;SDS011;47432;48.760;9.178;2023-05-09T04:49:25;53.00;;;26.13;;
6763;SDS011;47432;48.760;9.178;2023-05-09T04:51:51;43.20;;;24.70;;
6763;SDS011;47432;48.760;9.178;2023-05-09T04:54:18;42.87;;;23.70;;
6763;SDS011;47432;48.760;9.178;2023-05-09T04:56:44;41.70;;;22.17;;
6763;SDS011;47432;48.760;9.178;2023-05-09T04:59:10;40.63;;;22.07;;
6763;SDS011;47432;48.760;9.178;2023-05-09T05:01:38;40.07;;;21.83;;
6763;SDS011;47432;48.760;9.178;2023-05-09T05:04:05;39.00;;;22.50;;
6763;SDS011;47432;48.760;9.178;2023-05-09T05:06:31;36.67;;;21.07;;
6763;SDS011;47432;48.760;9.178;2023-05-09T05:08:57;43.47;;;22.90;;
6763;SDS011;47432;48.760;9.178;2023-05-09T05:11:29;42.90;;;22.23;;
6763;SDS011;47432;48.760;9.178;2023-05-09T05:13:58;40.03;;;22.77;;
6763;SDS011;47432;48.760;9.178;2023-05-09T05:16:24;36.33;;;20.30;;
6763;SDS011;47432;48.760;9.178;2023-05-09T05:18:50;41.87;;;19.93;;
6763;SDS011;47432;48.760;9.178;2023-05-09T05:21:16;37.20;;;21.27;;
6763;SDS011;47432;48.760;9.178;2023-05-09T05:23:44;42.47;;;21.10;;
6763;SDS011;47432;48.760;9.178;2023-05-09T05:26:10;40.07;;;22.90;;
6763;SDS011;47432;48.760;9.178;2023-05-09T05:28:37;37.47;;;21.17;;
6763;SDS011;47432;48.760;9.178;2023-05-09T05:31:03;34.20;;;21.17;;
6763;SDS011;47432;48.760;9.178;2023-05-09T05:33:29;45.27;;;25.13;;
6763;SDS011;47432;48.760;9.178;2023-05-09T05:35:55;41.93;;;22.60;;
6763;SDS011;47432;48.760;9.178;2023-05-09T05:38:21;41.17;;;21.70;;
6763;SDS011;47432;48.760;9.178;2023-05-09T05:40:47;35.53;;;20.80;;
6763;SDS011;47432;48.760;9.178;2023-05-09T05:43:13;35.27;;;21.43;;
6763;SDS011;47432;48.760;9.178;2023-05-09T05:45:39;34.27;;;22.00;;
6763;SDS011;47432;48.760;9.178;2023-05-09T05:48:05;33.63;;;19.93;;
6763;SDS011;47432;48.760;9.178;2023-05-09T05:50:32;32.37;;;19.63;;
6763;SDS011;47432;48.760;9.178;2023-05-09T05:52:58;33.73;;;19.47;;
6763;SDS011;47432;48.760;9.178;2023-05-09T05:55:26;32.63;;;20.13;;
6763;SDS011;47432;48.760;9.178;2023-05-09T05:57:52;33.07;;;19.50;;
6763;SDS011;47432;48.760;9.178;2023-05-09T06:00:17;33.40;;;19.47;;
6763;SDS011;47432;48.760;9.178;2023-05-09T06:02:44;34.67;;;20.80;;
6763;SDS011;47432;48.760;9.178;2023-05-09T06:05:11;32.23;;;19.30;;
6763;SDS011;47432;48.760;9.178;2023-05-09T06:07:38;33.73;;;20.33;;
6763;SDS011;47432;48.760;9.178;2023-05-09T06:10:05;30.07;;;18.50;;
6763;SDS011;47432;48.760;9.178;2023-05-09T06:12:32;33.80;;;20.63;;
6763;SDS011;47432;48.760;9.178;2023-05-09T06:14:58;31.00;;;19.20;;
6763;SDS011;47432;48.760;9.178;2023-05-09T06:17:25;36.10;;;21.07;;
6763;SDS011;47432;48.760;9.178;2023-05-09T06:19:51;30.53;;;19.40;;
6763;SDS011;47432;48.760;9.178;2023-05-09T06:22:16;35.90;;;21.10;;
6763;SDS011;47432;48.760;9.178;2023-05-09T06:24:42;32.27;;;19.40;;
6763;SDS011;47432;48.760;9.178;2023-05-09T06:27:09;36.73;;;19.93;;
6763;SDS011;47432;48.760;9.178;2023-05-09T06:29:35;35.70;;;21.87;;
6763;SDS011;47432;48.760;9.178;2023-05-09T06:32:01;34.30;;;19.77;;
6763;SDS011;47432;48.760;9.178;2023-05-09T06:34:27;29.10;;;18.73;;
6763;SDS011;47432;48.760;9.178;2023-05-09T06:36:53;32.27;;;20.30;;
6763;SDS011;47432;48.760;9.178;2023-05-09T06:39:19;34.60;;;19.63;;
6763;SDS011;47432;48.760;9.178;2023-05-09T06:41:45;31.53;;;19.73;;
6763;SDS011;47432;48.760;9.178;2023-05-09T06:44:11;33.63;;;18.90;;
6763;SDS011;47432;48.760;9.178;2023-05-09T06:46:40;36.80;;;21.37;;
6763;SDS011;47432;48.760;9.178;2023-05-09T06:49:05;34.33;;;20.30;;
6763;SDS011;47432;48.760;9.178;2023-05-09T06:51:31;33.23;;;19.93;;
6763;SDS011;47432;48.760;9.178;2023-05-09T06:53:58;30.70;;;19.17;;
6763;SDS011;47432;48.760;9.178;2023-05-09T06:56:24;36.17;;;21.80;;
6763;SDS011;47432;48.760;9.178;2023-05-09T06:58:53;33.80;;;19.80;;
6763;SDS011;47432;48.760;9.178;2023-05-09T07:01:19;36.10;;;18.63;;
6763;SDS011;47432;48.760;9.178;2023-05-09T07:03:45;36.77;;;20.07;;
6763;SDS011;47432;48.760;9.178;2023-05-09T07:06:12;28.20;;;18.53;;
6763;SDS011;47432;48.760;9.178;2023-05-09T07:08:43;25.70;;;17.20;;
6763;SDS011;47432;48.760;9.178;2023-05-09T07:11:10;29.37;;;18.00;;
6763;SDS011;47432;48.760;9.178;2023-05-09T07:13:37;29.27;;;18.77;;
6763;SDS011;47432;48.760;9.178;2023-05-09T07:16:02;24.30;;;16.60;;
6763;SDS011;47432;48.760;9.178;2023-05-09T07:18:29;29.20;;;19.03;;
6763;SDS011;47432;48.760;9.178;2023-05-09T07:20:54;35.73;;;20.67;;
6763;SDS011;47432;48.760;9.178;2023-05-09T07:23:21;26.73;;;18.30;;
6763;SDS011;47432;48.760;9.178;2023-05-09T07:25:47;25.60;;;17.27;;
6763;SDS011;47432;48.760;9.178;2023-05-09T07:28:13;26.70;;;17.80;;
6763;SDS011;47432;48.760;9.178;2023-05-09T07:30:39;29.33;;;18.03;;
6763;SDS011;47432;48.760;9.178;2023-05-09T07:33:07;24.30;;;16.10;;
6763;SDS011;47432;48.760;9.178;2023-05-09T07:35:33;26.23;;;17.50;;
6763;SDS011;47432;48.760;9.178;2023-05-09T07:37:59;31.57;;;17.90;;
6763;SDS011;47432;48.760;9.178;2023-05-09T07:40:25;27.80;;;17.57;;
6763;SDS011;47432;48.760;9.178;2023-05-09T07:42:53;27.03;;;16.60;;
6763;SDS011;47432;48.760;9.178;2023-05-09T07:45:20;24.97;;;15.20;;
6763;SDS011;47432;48.760;9.178;2023-05-09T07:47:46;27.90;;;16.73;;
6763;SDS011;47432;48.760;9.178;2023-05-09T07:50:16;22.77;;;15.27;;
6763;SDS011;47432;48.760;9.178;2023-05-09T07:52:45;27.60;;;17.00;;
6763;SDS011;47432;48.760;9.178;2023-05-09T07:55:12;26.53;;;15.83;;
6763;SDS011;47432;48.760;9.178;2023-05-09T07:57:38;24.13;;;16.10;;
6763;SDS011;47432;48.760;9.178;2023-05-09T08:00:04;24.00;;;15.30;;
6763;SDS011;47432;48.760;9.178;2023-05-09T08:02:31;25.10;;;15.30;;
6763;SDS011;47432;48.760;9.178;2023-05-09T08:04:57;23.13;;;14.67;;
6763;SDS011;47432;48.760;9.178;2023-05-09T08:07:23;27.00;;;16.23;;
6763;SDS011;47432;48.760;9.178;2023-05-09T08:09:50;24.70;;;15.70;;
6763;SDS011;47432;48.760;9.178;2023-05-09T08:12:16;25.13;;;14.53;;
6763;SDS011;47432;48.760;9.178;2023-05-09T08:14:44;21.80;;;13.70;;
6763;SDS011;47432;48.760;9.178;2023-05-09T08:17:10;25.23;;;15.37;;
6763;SDS011;47432;48.760;9.178;2023-05-09T08:19:36;27.23;;;16.27;;
6763;SDS011;47432;48.760;9.178;2023-05-09T08:22:02;27.87;;;15.93;;
6763;SDS011;47432;48.760;9.178;2023-05-09T08:24:28;23.40;;;13.93;;
6763;SDS011;47432;48.760;9.178;2023-05-09T08:26:55;24.87;;;12.90;;
6763;SDS011;47432;48.760;9.178;2023-05-09T08:29:22;21.27;;;11.17;;
6763;SDS011;47432;48.760;9.178;2023-05-09T08:31:48;19.20;;;11.07;;
6763;SDS011;47432;48.760;9.178;2023-05-09T08:34:15;19.00;;;10.60;;
6763;SDS011;47432;48.760;9.178;2023-05-09T08:36:41;18.77;;;10.70;;
6763;SDS011;47432;48.760;9.178;2023-05-09T08:39:09;24.30;;;13.33;;
6763;SDS011;47432;48.760;9.178;2023-05-09T08:41:35;18.00;;;10.97;;
6763;SDS011;47432;48.760;9.178;2023-05-09T08:44:01;21.93;;;11.47;;
6763;SDS011;47432;48.760;9.178;2023-05-09T08:46:31;22.30;;;13.20;;
6763;SDS011;47432;48.760;9.178;2023-05-09T08:49:02;27.17;;;12.10;;
6763;SDS011;47432;48.760;9.178;2023-05-09T08:51:30;19.17;;;12.20;;
6763;SDS011;47432;48.760;9.178;2023-05-09T08:53:57;20.87;;;13.60;;
6763;SDS011;47432;48.760;9.178;2023-05-09T08:56:26;22.13;;;14.47;;
6763;SDS011;47432;48.760;9.178;2023-05-09T08:58:53;22.97;;;13.70;;
6763;SDS011;47432;48.760;9.178;2023-05-09T09:01:20;23.63;;;14.67;;
6763;SDS011;47432;48.760;9.178;2023-05-09T09:03:47;23.43;;;14.80;;
6763;SDS011;47432;48.760;9.178;2023-05-09T09:06:16;24.60;;;14.33;;
6763;SDS011;47432;48.760;9.178;2023-05-09T09:08:43;21.00;;;14.10;;
6763;SDS011;47432;48.760;9.178;2023-05-09T09:11:12;19.17;;;11.73;;
6763;SDS011;47432;48.760;9.178;2023-05-09T09:13:39;28.00;;;14.60;;
6763;SDS011;47432;48.760;9.178;2023-05-09T09:16:08;26.20;;;15.27;;
6763;SDS011;47432;48.760;9.178;2023-05-09T09:18:37;24.50;;;14.60;;
6763;SDS011;47432;48.760;9.178;2023-05-09T09:21:10;25.13;;;14.33;;
6763;SDS011;47432;48.760;9.178;2023-05-09T09:23:39;23.20;;;13.60;;
6763;SDS011;47432;48.760;9.178;2023-05-09T09:26:07;20.70;;;13.27;;
6763;SDS011;47432;48.760;9.178;2023-05-09T09:28:33;23.47;;;13.23;;
6763;SDS011;47432;48.760;9.178;2023-05-09T09:31:02;20.83;;;12.20;;
6763;SDS011;47432;48.760;9.178;2023-05-09T09:33:47;19.33;;;12.07;;
6763;SDS011;47432;48.760;9.178;2023-05-09T09:36:13;18.30;;;11.33;;
6763;SDS011;47432;48.760;9.178;2023-05-09T09:38:40;19.57;;;10.77;;
6763;SDS011;47432;48.760;9.178;2023-05-09T09:41:10;20.10;;;11.30;;
6763;SDS011;47432;48.760;9.178;2023-05-09T09:43:37;21.03;;;11.77;;
6763;SDS011;47432;48.760;9.178;2023-05-09T09:46:03;24.83;;;14.40;;
6763;SDS011;47432;48.760;9.178;2023-05-09T09:48:30;18.57;;;11.13;;
6763;SDS011;47432;48.760;9.178;2023-05-09T09:51:10;21.80;;;12.30;;
6763;SDS011;47432;48.760;9.178;2023-05-09T09:53:40;23.80;;;13.00;;
6763;SDS011;47432;48.760;9.178;2023-05-09T09:56:06;17.93;;;11.70;;
6763;SDS011;47432;48.760;9.178;2023-05-09T09:58:33;21.60;;;12.00;;
6763;SDS011;47432;48.760;9.178;2023-05-09T10:01:08;22.83;;;12.80;;
6763;SDS011;47432;48.760;9.178;2023-05-09T10:03:38;21.50;;;12.33;;
6763;SDS011;47432;48.760;9.178;2023-05-09T10:06:14;25.13;;;12.93;;
6763;SDS011;47432;48.760;9.178;2023-05-09T10:08:41;19.43;;;10.93;;
6763;SDS011;47432;48.760;9.178;2023-05-09T10:11:08;19.33;;;12.20;;
6763;SDS011;47432;48.760;9.178;2023-05-09T10:13:35;20.87;;;12.33;;
6763;SDS011;47432;48.760;9.178;2023-05-09T10:16:02;18.37;;;10.90;;
6763;SDS011;47432;48.760;9.178;2023-05-09T10:18:30;18.57;;;10.90;;
6763;SDS011;47432;48.760;9.178;2023-05-09T10:20:57;27.03;;;15.40;;
6763;SDS011;47432;48.760;9.178;2023-05-09T10:23:31;20.97;;;11.97;;
6763;SDS011;47432;48.760;9.178;2023-05-09T10:28:39;23.73;;;14.40;;
6763;SDS011;47432;48.760;9.178;2023-05-09T10:33:52;22.50;;;12.90;;
6763;SDS011;47432;48.760;9.178;2023-05-09T10:36:20;24.80;;;14.87;;
6763;SDS011;47432;48.760;9.178;2023-05-09T10:38:50;18.80;;;11.50;;
6763;SDS011;47432;48.760;9.178;2023-05-09T10:41:21;20.87;;;13.00;;
6763;SDS011;47432;48.760;9.178;2023-05-09T10:43:49;22.80;;;13.17;;
6763;SDS011;47432;48.760;9.178;2023-05-09T10:46:16;22.60;;;13.50;;
6763;SDS011;47432;48.760;9.178;2023-05-09T10:48:42;18.50;;;11.10;;
6763;SDS011;47432;48.760;9.178;2023-05-09T10:51:09;27.77;;;16.43;;
6763;SDS011;47432;48.760;9.178;2023-05-09T10:53:58;19.53;;;12.60;;
6763;SDS011;47432;48.760;9.178;2023-05-09T10:56:32;22.23;;;14.10;;
6763;SDS011;47432;48.760;9.178;2023-05-09T10:58:59;27.67;;;15.73;;
6763;SDS011;47432;48.760;9.178;2023-05-09T11:01:33;22.97;;;13.43;;
6763;SDS011;47432;48.760;9.178;2023-05-09T11:04:13;21.70;;;11.80;;
6763;SDS011;47432;48.760;9.178;2023-05-09T11:06:42;20.10;;;11.77;;
6763;SDS011;47432;48.760;9.178;2023-05-09T11:11:58;26.00;;;13.70;;
6763;SDS011;47432;48.760;9.178;2023-05-09T11:14:29;17.30;;;10.57;;
6763;SDS011;47432;48.760;9.178;2023-05-09T11:16:59;17.70;;;9.60;;
6763;SDS011;47432;48.760;9.178;2023-05-09T11:22:11;17.90;;;10.40;;
6763;SDS011;47432;48.760;9.178;2023-05-09T11:24:38;14.90;;;8.17;;
6763;SDS011;47432;48.760;9.178;2023-05-09T11:27:21;16.60;;;8.53;;
6763;SDS011;47432;48.760;9.178;2023-05-09T11:29:50;13.03;;;6.80;;
6763;SDS011;47432;48.760;9.178;2023-05-09T11:32:18;15.10;;;7.60;;
6763;SDS011;47432;48.760;9.178;2023-05-09T11:34:45;16.03;;;8.07;;
6763;SDS011;47432;48.760;9.178;2023-05-09T11:37:15;15.30;;;6.70;;
6763;SDS011;47432;48.760;9.178;2023-05-09T11:39:54;19.13;;;8.27;;
6763;SDS011;47432;48.760;9.178;2023-05-09T11:42:26;14.53;;;7.27;;
6763;SDS011;47432;48.760;9.178;2023-05-09T11:44:52;17.07;;;8.03;;
6763;SDS011;47432;48.760;9.178;2023-05-09T11:47:20;12.97;;;6.73;;
6763;SDS011;47432;48.760;9.178;2023-05-09T11:49:48;17.67;;;7.73;;
6763;SDS011;47432;48.760;9.178;2023-05-09T11:52:15;15.10;;;6.80;;
6763;SDS011;47432;48.760;9.178;2023-05-09T11:54:45;13.17;;;5.97;;
6763;SDS011;47432;48.760;9.178;2023-05-09T11:57:11;17.07;;;7.53;;
6763;SDS011;47432;48.760;9.178;2023-05-09T11:59:41;12.00;;;4.90;;
6763;SDS011;47432;48.760;9.178;2023-05-09T12:02:11;14.53;;;5.17;;
6763;SDS011;47432;48.760;9.178;2023-05-09T12:04:37;11.70;;;4.43;;
6763;SDS011;47432;48.760;9.178;2023-05-09T12:07:04;14.00;;;5.93;;
6763;SDS011;47432;48.760;9.178;2023-05-09T12:09:33;14.63;;;5.00;;
6763;SDS011;47432;48.760;9.178;2023-05-09T12:12:07;15.70;;;7.13;;
6763;SDS011;47432;48.760;9.178;2023-05-09T12:14:35;13.80;;;5.60;;
6763;SDS011;47432;48.760;9.178;2023-05-09T12:17:02;11.47;;;4.70;;
6763;SDS011;47432;48.760;9.178;2023-05-09T12:19:28;14.63;;;6.67;;
6763;SDS011;47432;48.760;9.178;2023-05-09T12:21:57;12.03;;;4.70;;
6763;SDS011;47432;48.760;9.178;2023-05-09T12:24:24;13.00;;;4.37;;
6763;SDS011;47432;48.760;9.178;2023-05-09T12:26:51;12.90;;;5.30;;
6763;SDS011;47432;48.760;9.178;2023-05-09T12:29:18;12.60;;;5.17;;
6763;SDS011;47432;48.760;9.178;2023-05-09T12:31:45;14.90;;;5.03;;
6763;SDS011;47432;48.760;9.178;2023-05-09T12:34:12;10.47;;;3.40;;
6763;SDS011;47432;48.760;9.178;2023-05-09T12:36:38;11.70;;;4.00;;
6763;SDS011;47432;48.760;9.178;2023-05-09T12:39:07;11.60;;;4.50;;
6763;SDS011;47432;48.760;9.178;2023-05-09T12:41:47;13.73;;;5.33;;
6763;SDS011;47432;48.760;9.178;2023-05-09T12:44:17;14.93;;;4.10;;
6763;SDS011;47432;48.760;9.178;2023-05-09T12:47:00;13.57;;;5.30;;
6763;SDS011;47432;48.760;9.178;2023-05-09T12:49:28;10.10;;;3.40;;
6763;SDS011;47432;48.760;9.178;2023-05-09T12:51:56;11.17;;;3.97;;
6763;SDS011;47432;48.760;9.178;2023-05-09T12:54:25;12.17;;;4.60;;
6763;SDS011;47432;48.760;9.178;2023-05-09T12:56:53;13.10;;;4.33;;
6763;SDS011;47432;48.760;9.178;2023-05-09T12:59:24;12.07;;;4.40;;
6763;SDS011;47432;48.760;9.178;2023-05-09T13:01:53;11.23;;;3.70;;
6763;SDS011;47432;48.760;9.178;2023-05-09T13:04:24;13.27;;;4.70;;
6763;SDS011;47432;48.760;9.178;2023-05-09T13:06:55;10.20;;;3.80;;
6763;SDS011;47432;48.760;9.178;2023-05-09T13:09:26;14.77;;;3.77;;
6763;SDS011;47432;48.760;9.178;2023-05-09T13:11:51;10.77;;;3.60;;
6763;SDS011;47432;48.760;9.178;2023-05-09T13:14:18;13.30;;;4.10;;
6763;SDS011;47432;48.760;9.178;2023-05-09T13:16:46;13.47;;;3.47;;
6763;SDS011;47432;48.760;9.178;2023-05-09T13:19:15;26.73;;;6.27;;
6763;SDS011;47432;48.760;9.178;2023-05-09T13:21:40;16.47;;;5.80;;
6763;SDS011;47432;48.760;9.178;2023-05-09T13:24:07;14.13;;;5.30;;
6763;SDS011;47432;48.760;9.178;2023-05-09T13:26:33;11.63;;;4.53;;
6763;SDS011;47432;48.760;9.178;2023-05-09T13:28:59;11.30;;;4.03;;
6763;SDS011;47432;48.760;9.178;2023-05-09T13:31:25;11.13;;;3.87;;
6763;SDS011;47432;48.760;9.178;2023-05-09T13:33:51;12.73;;;4.60;;
6763;SDS011;47432;48.760;9.178;2023-05-09T13:36:17;10.10;;;3.60;;
6763;SDS011;47432;48.760;9.178;2023-05-09T13:38:44;12.13;;;3.90;;
6763;SDS011;47432;48.760;9.178;2023-05-09T13:41:10;12.33;;;4.43;;
6763;SDS011;47432;48.760;9.178;2023-05-09T13:43:38;13.50;;;4.70;;
6763;SDS011;47432;48.760;9.178;2023-05-09T13:46:06;14.07;;;5.80;;
6763;SDS011;47432;48.760;9.178;2023-05-09T13:48:32;14.63;;;5.70;;
6763;SDS011;47432;48.760;9.178;2023-05-09T13:50:58;14.27;;;6.07;;
6763;SDS011;47432;48.760;9.178;2023-05-09T13:53:25;12.40;;;4.43;;
6763;SDS011;47432;48.760;9.178;2023-05-09T13:55:53;18.97;;;6.80;;
6763;SDS011;47432;48.760;9.178;2023-05-09T13:58:19;12.90;;;4.90;;
6763;SDS011;47432;48.760;9.178;2023-05-09T14:00:45;16.20;;;5.70;;
6763;SDS011;47432;48.760;9.178;2023-05-09T14:03:11;12.40;;;4.53;;
6763;SDS011;47432;48.760;9.178;2023-05-09T14:05:38;16.07;;;5.60;;
6763;SDS011;47432;48.760;9.178;2023-05-09T14:08:04;11.93;;;4.63;;
6763;SDS011;47432;48.760;9.178;2023-05-09T14:10:31;15.07;;;5.03;;
6763;SDS011;47432;48.760;9.178;2023-05-09T14:12:57;12.53;;;4.77;;
6763;SDS011;47432;48.760;9.178;2023-05-09T14:15:24;12.03;;;4.43;;
6763;SDS011;47432;48.760;9.178;2023-05-09T14:17:50;11.20;;;3.80;;
6763;SDS011;47432;48.760;9.178;2023-05-09T14:20:16;11.50;;;4.17;;
6763;SDS011;47432;48.760;9.178;2023-05-09T14:22:42;13.67;;;4.80;;
6763;SDS011;47432;48.760;9.178;2023-05-09T14:25:08;13.40;;;5.10;;
6763;SDS011;47432;48.760;9.178;2023-05-09T14:27:34;17.27;;;6.87;;
6763;SDS011;47432;48.760;9.178;2023-05-09T14:30:01;11.93;;;4.43;;
6763;SDS011;47432;48.760;9.178;2023-05-09T14:32:28;11.70;;;4.33;;
6763;SDS011;47432;48.760;9.178;2023-05-09T14:34:54;13.67;;;4.93;;
6763;SDS011;47432;48.760;9.178;2023-05-09T14:37:20;13.80;;;5.07;;
6763;SDS011;47432;48.760;9.178;2023-05-09T14:39:46;14.27;;;5.23;;
6763;SDS011;47432;48.760;9.178;2023-05-09T14:42:13;10.60;;;3.37;;
6763;SDS011;47432;48.760;9.178;2023-05-09T14:44:40;19.60;;;6.97;;
6763;SDS011;47432;48.760;9.178;2023-05-09T14:47:07;14.77;;;5.20;;
6763;SDS011;47432;48.760;9.178;2023-05-09T14:49:33;9.10;;;2.63;;
6763;SDS011;47432;48.760;9.178;2023-05-09T14:52:00;12.67;;;3.10;;
6763;SDS011;47432;48.760;9.178;2023-05-09T14:54:27;9.40;;;2.60;;
6763;SDS011;47432;48.760;9.178;2023-05-09T14:56:53;11.47;;;3.60;;
6763;SDS011;47432;48.760;9.178;2023-05-09T14:59:19;9.83;;;2.87;;
6763;SDS011;47432;48.760;9.178;2023-05-09T15:01:45;9.70;;;2.80;;
6763;SDS011;47432;48.760;9.178;2023-05-09T15:04:14;11.23;;;2.93;;
6763;SDS011;47432;48.760;9.178;2023-05-09T15:06:40;13.10;;;3.13;;
6763;SDS011;47432;48.760;9.178;2023-05-09T15:09:07;10.47;;;3.37;;
6763;SDS011;47432;48.760;9.178;2023-05-09T15:11:34;10.73;;;3.40;;